No particular awareness of the weather is required.    There are no Weather-warnings


Meteo18 Weather Cam more information Meteo18 Weather Cam


Thunder radar more information blitzortung!


Rain radar more information rain snow radar


Visit our other weather sites:

Template documentation
and downloads

And another site



Weather Underground History page Text

Daily Summary for October 3, 2017 Units:  Both    English   Metric
« Previous Day
Next Day »
Daily Weekly Monthly Yearly Custom
  High: Low: Average:
Temperature: 63.5 °F /  17.5 °C 48.9 °F /  9.4 °C 58.6 °F /  14.8 °C
Dew Point: 62.4 °F /  16.9 °C 46 °F /  7.8 °C 53.1 °F /  11.7 °C
Humidity: 96 % 58 % 83 %
Wind Speed: 12 mph /  19.3 km/h - 4.1 mph /  6.6 km/h
Wind Gust: 21 mph /  33.8 km/h - -
Wind:- - SSW
Pressure: 30.4 in /  1028.3 hPa 30.1 in /  1018.8 hPa -
Precipitation: 0.2 in /  5.1 mm    
Historical Graphs
 
 
Tabular Data for October 3, 2017
Time Temperature Dew Point Pressure Wind Wind Speed Wind Gust Humidity Rainfall Rate (Hourly)
00:02 63.3 °F /  17.4 °C 62.2 °F /  16.8 °C 30.2 in /  1020.9 hPa WNW 3 mph /  4.8 km/h 17 mph /  27.4 km/h 96 % 0 in /  0.0 mm
00:12 63.3 °F /  17.4 °C 62.2 °F /  16.8 °C 30.2 in /  1020.9 hPa WSW 9 mph /  14.5 km/h 12 mph /  19.3 km/h 96 % 0 in /  0.0 mm
00:17 63.3 °F /  17.4 °C 62.2 °F /  16.8 °C 30.2 in /  1020.9 hPa West 9 mph /  14.5 km/h 13 mph /  20.9 km/h 96 % 0 in /  0.0 mm
00:22 63.3 °F /  17.4 °C 62.2 °F /  16.8 °C 30.1 in /  1020.5 hPa West 6 mph /  9.7 km/h 14 mph /  22.5 km/h 96 % 0 in /  0.0 mm
00:32 63.5 °F /  17.5 °C 62.1 °F /  16.7 °C 30.1 in /  1020.5 hPa WSW 3 mph /  4.8 km/h 14 mph /  22.5 km/h 95 % 0 in /  0.0 mm
00:42 63.5 °F /  17.5 °C 62.1 °F /  16.7 °C 30.1 in /  1020.5 hPa WSW 5 mph /  8.0 km/h 13 mph /  20.9 km/h 95 % 0 in /  0.0 mm
00:47 63.3 °F /  17.4 °C 62.2 °F /  16.8 °C 30.1 in /  1020.5 hPa WSW 3 mph /  4.8 km/h 11 mph /  17.7 km/h 96 % 0 in /  0.0 mm
00:52 63.5 °F /  17.5 °C 62.4 °F /  16.9 °C 30.1 in /  1020.5 hPa WSW 6 mph /  9.7 km/h 13 mph /  20.9 km/h 96 % 0 in /  0.0 mm
00:57 63.3 °F /  17.4 °C 62.2 °F /  16.8 °C 30.1 in /  1020.5 hPa WSW 4 mph /  6.4 km/h 13 mph /  20.9 km/h 96 % 0 in /  0.0 mm
01:02 63.3 °F /  17.4 °C 62.2 °F /  16.8 °C 30.1 in /  1020.5 hPa WSW 3 mph /  4.8 km/h 15 mph /  24.1 km/h 96 % 0 in /  0.0 mm
01:07 63.3 °F /  17.4 °C 62.2 °F /  16.8 °C 30.1 in /  1020.5 hPa SSW 6 mph /  9.7 km/h 15 mph /  24.1 km/h 96 % 0 in /  0.0 mm
01:12 63.3 °F /  17.4 °C 62.2 °F /  16.8 °C 30.1 in /  1020.2 hPa West 3 mph /  4.8 km/h 15 mph /  24.1 km/h 96 % 0 in /  0.0 mm
01:17 63.3 °F /  17.4 °C 62.2 °F /  16.8 °C 30.1 in /  1020.2 hPa West 5 mph /  8.0 km/h 11 mph /  17.7 km/h 96 % 0 in /  0.0 mm
01:22 63.3 °F /  17.4 °C 62.2 °F /  16.8 °C 30.1 in /  1020.2 hPa WSW 5 mph /  8.0 km/h 10 mph /  16.1 km/h 96 % 0.01 in /  0.3 mm
01:27 63.3 °F /  17.4 °C 62.2 °F /  16.8 °C 30.1 in /  1020.2 hPa West 5 mph /  8.0 km/h 13 mph /  20.9 km/h 96 % 0.01 in /  0.3 mm
01:32 63.3 °F /  17.4 °C 62.2 °F /  16.8 °C 30.1 in /  1020.2 hPa WSW 7 mph /  11.3 km/h 13 mph /  20.9 km/h 96 % 0.01 in /  0.3 mm
01:37 63.3 °F /  17.4 °C 62.2 °F /  16.8 °C 30.1 in /  1020.2 hPa West 5 mph /  8.0 km/h 13 mph /  20.9 km/h 96 % 0.01 in /  0.3 mm
01:42 63.3 °F /  17.4 °C 62.2 °F /  16.8 °C 30.1 in /  1020.2 hPa SW 4 mph /  6.4 km/h 13 mph /  20.9 km/h 96 % 0.01 in /  0.3 mm
01:47 63.3 °F /  17.4 °C 62.2 °F /  16.8 °C 30.1 in /  1019.9 hPa SW 4 mph /  6.4 km/h 16 mph /  25.7 km/h 96 % 0.01 in /  0.3 mm
01:52 63.3 °F /  17.4 °C 62.2 °F /  16.8 °C 30.1 in /  1019.9 hPa WSW 6 mph /  9.7 km/h 16 mph /  25.7 km/h 96 % 0.01 in /  0.3 mm
01:57 63.3 °F /  17.4 °C 62.2 °F /  16.8 °C 30.1 in /  1019.9 hPa SW 9 mph /  14.5 km/h 16 mph /  25.7 km/h 96 % 0.01 in /  0.3 mm
02:02 63.3 °F /  17.4 °C 62.2 °F /  16.8 °C 30.1 in /  1019.9 hPa WSW 6 mph /  9.7 km/h 12 mph /  19.3 km/h 96 % 0.01 in /  0.3 mm
02:12 63.3 °F /  17.4 °C 62.2 °F /  16.8 °C 30.1 in /  1019.9 hPa SW 6 mph /  9.7 km/h 15 mph /  24.1 km/h 96 % 0.01 in /  0.3 mm
02:17 63.3 °F /  17.4 °C 62.2 °F /  16.8 °C 30.1 in /  1019.9 hPa WSW 5 mph /  8.0 km/h 15 mph /  24.1 km/h 96 % 0 in /  0.0 mm
02:22 63.3 °F /  17.4 °C 62.2 °F /  16.8 °C 30.1 in /  1019.9 hPa West 7 mph /  11.3 km/h 18 mph /  29.0 km/h 96 % 0 in /  0.0 mm
02:27 63.3 °F /  17.4 °C 61.9 °F /  16.6 °C 30.1 in /  1019.9 hPa SW 9 mph /  14.5 km/h 18 mph /  29.0 km/h 95 % 0 in /  0.0 mm
02:32 63.5 °F /  17.5 °C 62.1 °F /  16.7 °C 30.1 in /  1019.5 hPa SW 5 mph /  8.0 km/h 18 mph /  29.0 km/h 95 % 0.01 in /  0.3 mm
02:37 63.3 °F /  17.4 °C 61.9 °F /  16.6 °C 30.1 in /  1019.5 hPa WSW 4 mph /  6.4 km/h 15 mph /  24.1 km/h 95 % 0.01 in /  0.3 mm
02:42 63.3 °F /  17.4 °C 61.9 °F /  16.6 °C 30.1 in /  1019.5 hPa WSW 5 mph /  8.0 km/h 14 mph /  22.5 km/h 95 % 0.01 in /  0.3 mm
02:47 63.3 °F /  17.4 °C 61.9 °F /  16.6 °C 30.1 in /  1019.5 hPa WSW 11 mph /  17.7 km/h 16 mph /  25.7 km/h 95 % 0.01 in /  0.3 mm
02:52 63.3 °F /  17.4 °C 61.9 °F /  16.6 °C 30.1 in /  1019.5 hPa West 5 mph /  8.0 km/h 16 mph /  25.7 km/h 95 % 0.01 in /  0.3 mm
02:57 63.3 °F /  17.4 °C 61.9 °F /  16.6 °C 30.1 in /  1019.5 hPa West 7 mph /  11.3 km/h 16 mph /  25.7 km/h 95 % 0.01 in /  0.3 mm
03:02 63.3 °F /  17.4 °C 61.9 °F /  16.6 °C 30.1 in /  1019.5 hPa SW 11 mph /  17.7 km/h 15 mph /  24.1 km/h 95 % 0.01 in /  0.3 mm
03:07 63.3 °F /  17.4 °C 61.9 °F /  16.6 °C 30.1 in /  1019.5 hPa West 12 mph /  19.3 km/h 15 mph /  24.1 km/h 95 % 0.01 in /  0.3 mm
03:12 63.3 °F /  17.4 °C 61.9 °F /  16.6 °C 30.1 in /  1019.5 hPa WSW 6 mph /  9.7 km/h 15 mph /  24.1 km/h 95 % 0.01 in /  0.3 mm
03:17 63.1 °F /  17.3 °C 61.7 °F /  16.5 °C 30.1 in /  1019.5 hPa West 5 mph /  8.0 km/h 15 mph /  24.1 km/h 95 % 0.01 in /  0.3 mm
03:22 63.1 °F /  17.3 °C 61.7 °F /  16.5 °C 30.1 in /  1019.5 hPa WSW 10 mph /  16.1 km/h 15 mph /  24.1 km/h 95 % 0.01 in /  0.3 mm
03:32 63.3 °F /  17.4 °C 61.9 °F /  16.6 °C 30.1 in /  1019.5 hPa West 7 mph /  11.3 km/h 15 mph /  24.1 km/h 95 % 0 in /  0.0 mm
03:37 63.3 °F /  17.4 °C 61.9 °F /  16.6 °C 30.1 in /  1019.5 hPa WNW 4 mph /  6.4 km/h 14 mph /  22.5 km/h 95 % 0 in /  0.0 mm
03:42 63.3 °F /  17.4 °C 61.9 °F /  16.6 °C 30.1 in /  1019.5 hPa SW 6 mph /  9.7 km/h 14 mph /  22.5 km/h 95 % 0 in /  0.0 mm
03:47 63.3 °F /  17.4 °C 61.9 °F /  16.6 °C 30.1 in /  1019.5 hPa West 10 mph /  16.1 km/h 14 mph /  22.5 km/h 95 % 0.01 in /  0.3 mm
03:52 63.3 °F /  17.4 °C 61.5 °F /  16.4 °C 30.1 in /  1019.5 hPa West 9 mph /  14.5 km/h 14 mph /  22.5 km/h 94 % 0.01 in /  0.3 mm
03:57 63.3 °F /  17.4 °C 61.5 °F /  16.4 °C 30.1 in /  1019.2 hPa West 8 mph /  12.9 km/h 14 mph /  22.5 km/h 94 % 0.01 in /  0.3 mm
04:02 63.3 °F /  17.4 °C 61.5 °F /  16.4 °C 30.1 in /  1019.2 hPa WNW 6 mph /  9.7 km/h 14 mph /  22.5 km/h 94 % 0.01 in /  0.3 mm
04:12 63.1 °F /  17.3 °C 61.7 °F /  16.5 °C 30.1 in /  1019.2 hPa SW 10 mph /  16.1 km/h 13 mph /  20.9 km/h 95 % 0.01 in /  0.3 mm
04:17 63.3 °F /  17.4 °C 61.9 °F /  16.6 °C 30.1 in /  1019.2 hPa WSW 6 mph /  9.7 km/h 13 mph /  20.9 km/h 95 % 0.01 in /  0.3 mm
04:22 63.3 °F /  17.4 °C 61.9 °F /  16.6 °C 30.1 in /  1019.2 hPa SW 7 mph /  11.3 km/h 13 mph /  20.9 km/h 95 % 0.01 in /  0.3 mm
04:27 63.1 °F /  17.3 °C 61.7 °F /  16.5 °C 30.1 in /  1019.2 hPa WSW 3 mph /  4.8 km/h 12 mph /  19.3 km/h 95 % 0.01 in /  0.3 mm
04:32 63.1 °F /  17.3 °C 61.7 °F /  16.5 °C 30.1 in /  1019.2 hPa WSW 3 mph /  4.8 km/h 12 mph /  19.3 km/h 95 % 0.01 in /  0.3 mm
04:37 63.1 °F /  17.3 °C 61.7 °F /  16.5 °C 30.1 in /  1019.2 hPa West 8 mph /  12.9 km/h 10 mph /  16.1 km/h 95 % 0.01 in /  0.3 mm
04:42 63.1 °F /  17.3 °C 61.7 °F /  16.5 °C 30.1 in /  1019.2 hPa West 5 mph /  8.0 km/h 10 mph /  16.1 km/h 95 % 0.01 in /  0.3 mm
04:47 63.1 °F /  17.3 °C 61.7 °F /  16.5 °C 30.1 in /  1019.2 hPa WSW 6 mph /  9.7 km/h 12 mph /  19.3 km/h 95 % 0 in /  0.0 mm
04:52 63.1 °F /  17.3 °C 61.7 °F /  16.5 °C 30.1 in /  1019.2 hPa West 8 mph /  12.9 km/h 12 mph /  19.3 km/h 95 % 0 in /  0.0 mm
04:57 63.3 °F /  17.4 °C 61.9 °F /  16.6 °C 30.1 in /  1019.2 hPa WSW 4 mph /  6.4 km/h 13 mph /  20.9 km/h 95 % 0.01 in /  0.3 mm
05:02 63.3 °F /  17.4 °C 61.9 °F /  16.6 °C 30.1 in /  1019.2 hPa West 4 mph /  6.4 km/h 13 mph /  20.9 km/h 95 % 0.01 in /  0.3 mm
05:22 63.3 °F /  17.4 °C 61.5 °F /  16.4 °C 30.1 in /  1019.2 hPa WSW 5 mph /  8.0 km/h 12 mph /  19.3 km/h 94 % 0.01 in /  0.3 mm
05:42 63.1 °F /  17.3 °C 61.7 °F /  16.5 °C 30.1 in /  1018.8 hPa WSW 3 mph /  4.8 km/h 9 mph /  14.5 km/h 95 % 0.02 in /  0.5 mm
05:47 63.1 °F /  17.3 °C 61.7 °F /  16.5 °C 30.1 in /  1018.8 hPa West 7 mph /  11.3 km/h 9 mph /  14.5 km/h 95 % 0.03 in /  0.8 mm
05:52 63 °F /  17.2 °C 61.5 °F /  16.4 °C 30.1 in /  1018.8 hPa WSW 7 mph /  11.3 km/h 9 mph /  14.5 km/h 95 % 0.04 in /  1.0 mm
05:57 63 °F /  17.2 °C 61.5 °F /  16.4 °C 30.1 in /  1018.8 hPa West 5 mph /  8.0 km/h 9 mph /  14.5 km/h 95 % 0.03 in /  0.8 mm
06:02 61 °F /  16.1 °C 58.1 °F /  14.5 °C 30.1 in /  1019.5 hPa NNW 7 mph /  11.3 km/h 21 mph /  33.8 km/h 90 % 0.05 in /  1.3 mm
06:12 58.6 °F /  14.8 °C 56.8 °F /  13.8 °C 30.1 in /  1019.9 hPa NW 6 mph /  9.7 km/h 21 mph /  33.8 km/h 94 % 0.09 in /  2.3 mm
06:17 57.9 °F /  14.4 °C 56.1 °F /  13.4 °C 30.1 in /  1019.9 hPa NE 8 mph /  12.9 km/h 12 mph /  19.3 km/h 94 % 0.12 in /  3.0 mm
06:22 57.6 °F /  14.2 °C 55.8 °F /  13.2 °C 30.1 in /  1019.9 hPa North 7 mph /  11.3 km/h 12 mph /  19.3 km/h 94 % 0.13 in /  3.3 mm
06:27 57.4 °F /  14.1 °C 55.9 °F /  13.3 °C 30.1 in /  1019.9 hPa NNW 4 mph /  6.4 km/h 12 mph /  19.3 km/h 95 % 0.13 in /  3.3 mm
06:32 57.2 °F /  14.0 °C 55.8 °F /  13.2 °C 30.1 in /  1019.9 hPa NE 8 mph /  12.9 km/h 12 mph /  19.3 km/h 95 % 0.14 in /  3.6 mm
06:42 57 °F /  13.9 °C 55.6 °F /  13.1 °C 30.1 in /  1019.9 hPa North 5 mph /  8.0 km/h 12 mph /  19.3 km/h 95 % 0.13 in /  3.3 mm
06:47 56.8 °F /  13.8 °C 55.4 °F /  13.0 °C 30.1 in /  1019.9 hPa North 4 mph /  6.4 km/h 13 mph /  20.9 km/h 95 % 0.13 in /  3.3 mm
06:57 56.7 °F /  13.7 °C 55.6 °F /  13.1 °C 30.1 in /  1020.2 hPa NNE 4 mph /  6.4 km/h 13 mph /  20.9 km/h 96 % 0.12 in /  3.0 mm
07:02 56.7 °F /  13.7 °C 55.6 °F /  13.1 °C 30.1 in /  1020.2 hPa NNW 5 mph /  8.0 km/h 10 mph /  16.1 km/h 96 % 0.1 in /  2.5 mm
07:12 56.1 °F /  13.4 °C 55 °F /  12.8 °C 30.1 in /  1020.2 hPa NNE 7 mph /  11.3 km/h 9 mph /  14.5 km/h 96 % 0.06 in /  1.5 mm
07:17 56.1 °F /  13.4 °C 55 °F /  12.8 °C 30.1 in /  1020.2 hPa North 10 mph /  16.1 km/h 13 mph /  20.9 km/h 96 % 0.04 in /  1.0 mm
07:22 55.9 °F /  13.3 °C 54.9 °F /  12.7 °C 30.1 in /  1020.2 hPa North 5 mph /  8.0 km/h 13 mph /  20.9 km/h 96 % 0.03 in /  0.8 mm
07:32 55.9 °F /  13.3 °C 54.9 °F /  12.7 °C 30.1 in /  1020.5 hPa NNE 4 mph /  6.4 km/h 13 mph /  20.9 km/h 96 % 0.02 in /  0.5 mm
07:37 55.9 °F /  13.3 °C 54.9 °F /  12.7 °C 30.1 in /  1020.5 hPa NNE 6 mph /  9.7 km/h 12 mph /  19.3 km/h 96 % 0.01 in /  0.3 mm
07:42 55.8 °F /  13.2 °C 54.7 °F /  12.6 °C 30.2 in /  1020.9 hPa North 7 mph /  11.3 km/h 10 mph /  16.1 km/h 96 % 0.01 in /  0.3 mm
07:47 55.8 °F /  13.2 °C 54.3 °F /  12.4 °C 30.2 in /  1020.9 hPa NNE 6 mph /  9.7 km/h 15 mph /  24.1 km/h 95 % 0.01 in /  0.3 mm
07:52 55.8 °F /  13.2 °C 54.3 °F /  12.4 °C 30.2 in /  1020.9 hPa North 9 mph /  14.5 km/h 15 mph /  24.1 km/h 95 % 0 in /  0.0 mm
07:57 55.8 °F /  13.2 °C 54.3 °F /  12.4 °C 30.2 in /  1021.2 hPa NNW 8 mph /  12.9 km/h 15 mph /  24.1 km/h 95 % 0 in /  0.0 mm
08:02 55.8 °F /  13.2 °C 54.3 °F /  12.4 °C 30.2 in /  1021.2 hPa NNE 6 mph /  9.7 km/h 14 mph /  22.5 km/h 95 % 0 in /  0.0 mm
08:12 55.6 °F /  13.1 °C 54 °F /  12.2 °C 30.2 in /  1021.6 hPa NNW 5 mph /  8.0 km/h 13 mph /  20.9 km/h 94 % 0 in /  0.0 mm
08:17 55.6 °F /  13.1 °C 54 °F /  12.2 °C 30.2 in /  1021.6 hPa North 3 mph /  4.8 km/h 13 mph /  20.9 km/h 94 % 0 in /  0.0 mm
08:22 55.6 °F /  13.1 °C 54 °F /  12.2 °C 30.2 in /  1021.6 hPa North 6 mph /  9.7 km/h 13 mph /  20.9 km/h 94 % 0 in /  0.0 mm
08:27 55.6 °F /  13.1 °C 54 °F /  12.2 °C 30.2 in /  1021.6 hPa NE 4 mph /  6.4 km/h 11 mph /  17.7 km/h 94 % 0 in /  0.0 mm
08:32 55.6 °F /  13.1 °C 54 °F /  12.2 °C 30.2 in /  1021.9 hPa North 7 mph /  11.3 km/h 11 mph /  17.7 km/h 94 % 0 in /  0.0 mm
08:37 55.8 °F /  13.2 °C 54.1 °F /  12.3 °C 30.2 in /  1021.9 hPa NNE 2 mph /  3.2 km/h 11 mph /  17.7 km/h 94 % 0 in /  0.0 mm
08:42 55.8 °F /  13.2 °C 54.1 °F /  12.3 °C 30.2 in /  1021.9 hPa NNE 5 mph /  8.0 km/h 11 mph /  17.7 km/h 94 % 0 in /  0.0 mm
08:52 55.8 °F /  13.2 °C 54.1 °F /  12.3 °C 30.2 in /  1022.2 hPa NNE 8 mph /  12.9 km/h 12 mph /  19.3 km/h 94 % 0 in /  0.0 mm
08:57 55.8 °F /  13.2 °C 53.8 °F /  12.1 °C 30.2 in /  1022.2 hPa North 3 mph /  4.8 km/h 14 mph /  22.5 km/h 93 % 0 in /  0.0 mm
09:02 55.8 °F /  13.2 °C 53.8 °F /  12.1 °C 30.2 in /  1022.2 hPa NNE 4 mph /  6.4 km/h 14 mph /  22.5 km/h 93 % 0 in /  0.0 mm
09:07 55.9 °F /  13.3 °C 54 °F /  12.2 °C 30.2 in /  1022.6 hPa NNW 4 mph /  6.4 km/h 14 mph /  22.5 km/h 93 % 0 in /  0.0 mm
09:12 55.9 °F /  13.3 °C 54 °F /  12.2 °C 30.2 in /  1022.2 hPa NNW 3 mph /  4.8 km/h 13 mph /  20.9 km/h 93 % 0 in /  0.0 mm
09:17 55.9 °F /  13.3 °C 54 °F /  12.2 °C 30.2 in /  1022.6 hPa NNW 4 mph /  6.4 km/h 13 mph /  20.9 km/h 93 % 0 in /  0.0 mm
09:22 55.8 °F /  13.2 °C 53.4 °F /  11.9 °C 30.2 in /  1022.6 hPa North 3 mph /  4.8 km/h 13 mph /  20.9 km/h 92 % 0 in /  0.0 mm
09:32 55.6 °F /  13.1 °C 53.2 °F /  11.8 °C 30.2 in /  1022.9 hPa NNE 7 mph /  11.3 km/h 11 mph /  17.7 km/h 92 % 0 in /  0.0 mm
09:42 55.6 °F /  13.1 °C 53.1 °F /  11.7 °C 30.2 in /  1023.2 hPa NNW 4 mph /  6.4 km/h 14 mph /  22.5 km/h 91 % 0 in /  0.0 mm
09:47 55.8 °F /  13.2 °C 53.2 °F /  11.8 °C 30.2 in /  1023.2 hPa NNE 3 mph /  4.8 km/h 15 mph /  24.1 km/h 91 % 0 in /  0.0 mm
09:52 56.1 °F /  13.4 °C 53.2 °F /  11.8 °C 30.2 in /  1023.2 hPa NE 6 mph /  9.7 km/h 15 mph /  24.1 km/h 90 % 0 in /  0.0 mm
09:57 56.5 °F /  13.6 °C 52.9 °F /  11.6 °C 30.2 in /  1023.2 hPa NNE 4 mph /  6.4 km/h 14 mph /  22.5 km/h 88 % 0 in /  0.0 mm
10:02 56.7 °F /  13.7 °C 52.5 °F /  11.4 °C 30.2 in /  1023.6 hPa North 10 mph /  16.1 km/h 10 mph /  16.1 km/h 86 % 0.01 in /  0.3 mm
10:12 57.4 °F /  14.1 °C 53.2 °F /  11.8 °C 30.2 in /  1023.6 hPa North 3 mph /  4.8 km/h 13 mph /  20.9 km/h 86 % 0.01 in /  0.3 mm
10:17 57.4 °F /  14.1 °C 53.6 °F /  12.0 °C 30.2 in /  1023.9 hPa NNW 9 mph /  14.5 km/h 13 mph /  20.9 km/h 87 % 0.01 in /  0.3 mm
10:22 56.7 °F /  13.7 °C 52.5 °F /  11.4 °C 30.2 in /  1023.9 hPa North 7 mph /  11.3 km/h 15 mph /  24.1 km/h 86 % 0.01 in /  0.3 mm
10:32 56.5 °F /  13.6 °C 52.7 °F /  11.5 °C 30.3 in /  1024.3 hPa NE 5 mph /  8.0 km/h 15 mph /  24.1 km/h 87 % 0.01 in /  0.3 mm
10:37 56.8 °F /  13.8 °C 52.7 °F /  11.5 °C 30.3 in /  1024.3 hPa North 6 mph /  9.7 km/h 13 mph /  20.9 km/h 86 % 0.01 in /  0.3 mm
10:42 57.6 °F /  14.2 °C 53.1 °F /  11.7 °C 30.2 in /  1023.9 hPa North 4 mph /  6.4 km/h 10 mph /  16.1 km/h 85 % 0.01 in /  0.3 mm
10:47 57.9 °F /  14.4 °C 53.4 °F /  11.9 °C 30.3 in /  1024.3 hPa NNW 7 mph /  11.3 km/h 12 mph /  19.3 km/h 85 % 0.01 in /  0.3 mm
10:52 57.9 °F /  14.4 °C 52.7 °F /  11.5 °C 30.3 in /  1024.3 hPa NNW 5 mph /  8.0 km/h 12 mph /  19.3 km/h 83 % 0.01 in /  0.3 mm
10:57 57.7 °F /  14.3 °C 52 °F /  11.1 °C 30.3 in /  1024.3 hPa NNE 6 mph /  9.7 km/h 12 mph /  19.3 km/h 81 % 0.01 in /  0.3 mm
11:02 57.9 °F /  14.4 °C 52.5 °F /  11.4 °C 30.3 in /  1024.3 hPa NE 4 mph /  6.4 km/h 14 mph /  22.5 km/h 82 % 0 in /  0.0 mm
11:12 58.3 °F /  14.6 °C 52.2 °F /  11.2 °C 30.3 in /  1024.3 hPa East 5 mph /  8.0 km/h 13 mph /  20.9 km/h 80 % 0 in /  0.0 mm
11:17 58.1 °F /  14.5 °C 50.5 °F /  10.3 °C 30.3 in /  1024.3 hPa NE 4 mph /  6.4 km/h 12 mph /  19.3 km/h 76 % 0 in /  0.0 mm
11:22 58.3 °F /  14.6 °C 51.1 °F /  10.6 °C 30.3 in /  1024.6 hPa NE 5 mph /  8.0 km/h 15 mph /  24.1 km/h 77 % 0 in /  0.0 mm
11:27 58.5 °F /  14.7 °C 51.3 °F /  10.7 °C 30.3 in /  1024.3 hPa North 4 mph /  6.4 km/h 15 mph /  24.1 km/h 77 % 0 in /  0.0 mm
11:32 58.6 °F /  14.8 °C 51.4 °F /  10.8 °C 30.3 in /  1024.6 hPa NE 6 mph /  9.7 km/h 15 mph /  24.1 km/h 77 % 0 in /  0.0 mm
11:37 58.6 °F /  14.8 °C 51.8 °F /  11.0 °C 30.3 in /  1024.6 hPa NNW 3 mph /  4.8 km/h 12 mph /  19.3 km/h 78 % 0 in /  0.0 mm
11:42 59 °F /  15.0 °C 51.8 °F /  11.0 °C 30.3 in /  1024.6 hPa NNE 7 mph /  11.3 km/h 12 mph /  19.3 km/h 77 % 0 in /  0.0 mm
11:47 59.5 °F /  15.3 °C 52 °F /  11.1 °C 30.3 in /  1024.6 hPa NNW 5 mph /  8.0 km/h 12 mph /  19.3 km/h 76 % 0 in /  0.0 mm
11:52 60.3 °F /  15.7 °C 53.4 °F /  11.9 °C 30.3 in /  1024.6 hPa NW 3 mph /  4.8 km/h 12 mph /  19.3 km/h 78 % 0 in /  0.0 mm
11:57 60.1 °F /  15.6 °C 53.6 °F /  12.0 °C 30.3 in /  1024.6 hPa NW 7 mph /  11.3 km/h 12 mph /  19.3 km/h 79 % 0 in /  0.0 mm
12:02 59.7 °F /  15.4 °C 52.5 °F /  11.4 °C 30.3 in /  1024.9 hPa NNW 3 mph /  4.8 km/h 12 mph /  19.3 km/h 77 % 0 in /  0.0 mm
12:07 59.4 °F /  15.2 °C 51.8 °F /  11.0 °C 30.3 in /  1024.9 hPa NNE 6 mph /  9.7 km/h 11 mph /  17.7 km/h 76 % 0 in /  0.0 mm
12:12 58.6 °F /  14.8 °C 51.1 °F /  10.6 °C 30.3 in /  1024.9 hPa NNE 2 mph /  3.2 km/h 11 mph /  17.7 km/h 76 % 0 in /  0.0 mm
12:17 59.2 °F /  15.1 °C 51.6 °F /  10.9 °C 30.3 in /  1024.9 hPa NE 4 mph /  6.4 km/h 10 mph /  16.1 km/h 76 % 0 in /  0.0 mm
12:22 59.5 °F /  15.3 °C 51.6 °F /  10.9 °C 30.3 in /  1024.9 hPa NNE 3 mph /  4.8 km/h 10 mph /  16.1 km/h 75 % 0 in /  0.0 mm
12:32 59.5 °F /  15.3 °C 49.3 °F /  9.6 °C 30.3 in /  1025.3 hPa NW 5 mph /  8.0 km/h 10 mph /  16.1 km/h 69 % 0 in /  0.0 mm
12:42 60.1 °F /  15.6 °C 50.2 °F /  10.1 °C 30.3 in /  1025.3 hPa NE 8 mph /  12.9 km/h 11 mph /  17.7 km/h 70 % 0 in /  0.0 mm
12:47 59.7 °F /  15.4 °C 49.5 °F /  9.7 °C 30.3 in /  1025.3 hPa WNW 10 mph /  16.1 km/h 13 mph /  20.9 km/h 69 % 0 in /  0.0 mm
12:52 60.1 °F /  15.6 °C 50.2 °F /  10.1 °C 30.3 in /  1025.6 hPa NNE 8 mph /  12.9 km/h 13 mph /  20.9 km/h 70 % 0 in /  0.0 mm
12:57 60.4 °F /  15.8 °C 50.5 °F /  10.3 °C 30.3 in /  1025.6 hPa NW 6 mph /  9.7 km/h 13 mph /  20.9 km/h 70 % 0 in /  0.0 mm
13:02 60.1 °F /  15.6 °C 49.8 °F /  9.9 °C 30.3 in /  1025.6 hPa NNW 6 mph /  9.7 km/h 12 mph /  19.3 km/h 69 % 0 in /  0.0 mm
13:07 59.4 °F /  15.2 °C 48.7 °F /  9.3 °C 30.3 in /  1025.6 hPa North 3 mph /  4.8 km/h 12 mph /  19.3 km/h 68 % 0 in /  0.0 mm
13:12 59.5 °F /  15.3 °C 48.9 °F /  9.4 °C 30.3 in /  1025.6 hPa North 8 mph /  12.9 km/h 12 mph /  19.3 km/h 68 % 0 in /  0.0 mm
13:17 59.9 °F /  15.5 °C 48.9 °F /  9.4 °C 30.3 in /  1025.6 hPa North 3 mph /  4.8 km/h 12 mph /  19.3 km/h 67 % 0 in /  0.0 mm
13:22 60.3 °F /  15.7 °C 49.3 °F /  9.6 °C 30.3 in /  1025.6 hPa NNE 6 mph /  9.7 km/h 11 mph /  17.7 km/h 67 % 0 in /  0.0 mm
13:27 60.8 °F /  16.0 °C 49.8 °F /  9.9 °C 30.3 in /  1025.6 hPa NNW 2 mph /  3.2 km/h 11 mph /  17.7 km/h 67 % 0 in /  0.0 mm
13:32 61.2 °F /  16.2 °C 49.3 °F /  9.6 °C 30.3 in /  1025.6 hPa NNW 9 mph /  14.5 km/h 16 mph /  25.7 km/h 65 % 0 in /  0.0 mm
13:37 60.4 °F /  15.8 °C 48.6 °F /  9.2 °C 30.3 in /  1025.6 hPa NE 6 mph /  9.7 km/h 16 mph /  25.7 km/h 65 % 0 in /  0.0 mm
13:42 59.9 °F /  15.5 °C 48.6 °F /  9.2 °C 30.3 in /  1026.0 hPa NW 2 mph /  3.2 km/h 16 mph /  25.7 km/h 66 % 0 in /  0.0 mm
13:52 60.6 °F /  15.9 °C 48.7 °F /  9.3 °C 30.3 in /  1025.6 hPa NNE 5 mph /  8.0 km/h 11 mph /  17.7 km/h 65 % 0 in /  0.0 mm
13:57 60.8 °F /  16.0 °C 48.9 °F /  9.4 °C 30.3 in /  1025.6 hPa Calm   8 mph /  12.9 km/h 65 % 0 in /  0.0 mm
14:02 61.5 °F /  16.4 °C 50.5 °F /  10.3 °C 30.3 in /  1025.6 hPa NNW 10 mph /  16.1 km/h 13 mph /  20.9 km/h 67 % 0 in /  0.0 mm
14:12 59.9 °F /  15.5 °C 48 °F /  8.9 °C 30.3 in /  1025.6 hPa NNE 6 mph /  9.7 km/h 14 mph /  22.5 km/h 65 % 0 in /  0.0 mm
14:17 60.4 °F /  15.8 °C 50.2 °F /  10.1 °C 30.3 in /  1025.6 hPa North 4 mph /  6.4 km/h 14 mph /  22.5 km/h 69 % 0 in /  0.0 mm
14:22 60.6 °F /  15.9 °C 48.4 °F /  9.1 °C 30.3 in /  1025.6 hPa NNE 3 mph /  4.8 km/h 10 mph /  16.1 km/h 64 % 0 in /  0.0 mm
14:27 61 °F /  16.1 °C 47.8 °F /  8.8 °C 30.3 in /  1025.6 hPa NNW 6 mph /  9.7 km/h 11 mph /  17.7 km/h 62 % 0 in /  0.0 mm
14:32 61.2 °F /  16.2 °C 48.9 °F /  9.4 °C 30.3 in /  1025.3 hPa NNW 2 mph /  3.2 km/h 12 mph /  19.3 km/h 64 % 0 in /  0.0 mm
14:42 62.1 °F /  16.7 °C 49.8 °F /  9.9 °C 30.3 in /  1025.3 hPa NNE 5 mph /  8.0 km/h 12 mph /  19.3 km/h 64 % 0 in /  0.0 mm
14:47 61.3 °F /  16.3 °C 50.4 °F /  10.2 °C 30.3 in /  1025.3 hPa NNW 7 mph /  11.3 km/h 10 mph /  16.1 km/h 67 % 0 in /  0.0 mm
14:52 61 °F /  16.1 °C 49.5 °F /  9.7 °C 30.3 in /  1025.3 hPa NE 9 mph /  14.5 km/h 10 mph /  16.1 km/h 66 % 0 in /  0.0 mm
14:57 60.6 °F /  15.9 °C 47.5 °F /  8.6 °C 30.3 in /  1025.3 hPa NE 6 mph /  9.7 km/h 10 mph /  16.1 km/h 62 % 0 in /  0.0 mm
15:02 60.8 °F /  16.0 °C 47.7 °F /  8.7 °C 30.3 in /  1025.3 hPa NNE 6 mph /  9.7 km/h 9 mph /  14.5 km/h 62 % 0 in /  0.0 mm
15:07 60.6 °F /  15.9 °C 48 °F /  8.9 °C 30.3 in /  1025.3 hPa NNW 2 mph /  3.2 km/h 9 mph /  14.5 km/h 63 % 0 in /  0.0 mm
15:12 61.2 °F /  16.2 °C 48 °F /  8.9 °C 30.3 in /  1025.3 hPa NNW 3 mph /  4.8 km/h 9 mph /  14.5 km/h 62 % 0 in /  0.0 mm
15:22 62.2 °F /  16.8 °C 50 °F /  10.0 °C 30.3 in /  1025.3 hPa NNE 10 mph /  16.1 km/h 10 mph /  16.1 km/h 64 % 0 in /  0.0 mm
15:27 61.2 °F /  16.2 °C 48 °F /  8.9 °C 30.3 in /  1025.3 hPa NNE 5 mph /  8.0 km/h 13 mph /  20.9 km/h 62 % 0 in /  0.0 mm
15:32 60.6 °F /  15.9 °C 48 °F /  8.9 °C 30.3 in /  1025.3 hPa NNW 3 mph /  4.8 km/h 13 mph /  20.9 km/h 63 % 0 in /  0.0 mm
15:37 60.6 °F /  15.9 °C 48.4 °F /  9.1 °C 30.3 in /  1025.3 hPa ENE 4 mph /  6.4 km/h 13 mph /  20.9 km/h 64 % 0 in /  0.0 mm
15:42 61.3 °F /  16.3 °C 47.8 °F /  8.8 °C 30.3 in /  1025.3 hPa NNE 1 mph /  1.6 km/h 10 mph /  16.1 km/h 61 % 0 in /  0.0 mm
15:47 61.9 °F /  16.6 °C 48.2 °F /  9.0 °C 30.3 in /  1024.9 hPa NNE 5 mph /  8.0 km/h 9 mph /  14.5 km/h 61 % 0 in /  0.0 mm
15:52 61.9 °F /  16.6 °C 48.2 °F /  9.0 °C 30.3 in /  1025.3 hPa NNW 3 mph /  4.8 km/h 8 mph /  12.9 km/h 61 % 0 in /  0.0 mm
15:57 61.9 °F /  16.6 °C 48.2 °F /  9.0 °C 30.3 in /  1025.3 hPa NW 4 mph /  6.4 km/h 10 mph /  16.1 km/h 61 % 0 in /  0.0 mm
16:02 61.9 °F /  16.6 °C 47.5 °F /  8.6 °C 30.3 in /  1025.3 hPa NNW 2 mph /  3.2 km/h 10 mph /  16.1 km/h 59 % 0 in /  0.0 mm
16:07 62.1 °F /  16.7 °C 48.4 °F /  9.1 °C 30.3 in /  1025.3 hPa NE 5 mph /  8.0 km/h 10 mph /  16.1 km/h 61 % 0 in /  0.0 mm
16:12 62.2 °F /  16.8 °C 49.1 °F /  9.5 °C 30.3 in /  1025.3 hPa NNE 4 mph /  6.4 km/h 9 mph /  14.5 km/h 62 % 0 in /  0.0 mm
16:17 61.7 °F /  16.5 °C 48.9 °F /  9.4 °C 30.3 in /  1025.3 hPa North 5 mph /  8.0 km/h 9 mph /  14.5 km/h 63 % 0 in /  0.0 mm
16:22 61.3 °F /  16.3 °C 48.6 °F /  9.2 °C 30.3 in /  1025.3 hPa NNW 1 mph /  1.6 km/h 9 mph /  14.5 km/h 63 % 0 in /  0.0 mm
16:27 61 °F /  16.1 °C 48.4 °F /  9.1 °C 30.3 in /  1025.3 hPa North 1 mph /  1.6 km/h 9 mph /  14.5 km/h 63 % 0 in /  0.0 mm
16:32 61 °F /  16.1 °C 47.8 °F /  8.8 °C 30.3 in /  1025.3 hPa Calm   8 mph /  12.9 km/h 62 % 0 in /  0.0 mm
16:37 61.3 °F /  16.3 °C 47.8 °F /  8.8 °C 30.3 in /  1025.3 hPa North 2 mph /  3.2 km/h 7 mph /  11.3 km/h 61 % 0 in /  0.0 mm
16:47 62.6 °F /  17.0 °C 48 °F /  8.9 °C 30.3 in /  1025.3 hPa North 1 mph /  1.6 km/h 3 mph /  4.8 km/h 59 % 0 in /  0.0 mm
16:52 62.8 °F /  17.1 °C 47.8 °F /  8.8 °C 30.3 in /  1025.3 hPa NNE 4 mph /  6.4 km/h 5 mph /  8.0 km/h 58 % 0 in /  0.0 mm
16:57 62.4 °F /  16.9 °C 47.5 °F /  8.6 °C 30.3 in /  1025.6 hPa NE 4 mph /  6.4 km/h 8 mph /  12.9 km/h 58 % 0 in /  0.0 mm
17:02 62.2 °F /  16.8 °C 49.1 °F /  9.5 °C 30.3 in /  1025.6 hPa NE 3 mph /  4.8 km/h 8 mph /  12.9 km/h 62 % 0 in /  0.0 mm
17:07 61.9 °F /  16.6 °C 48.7 °F /  9.3 °C 30.3 in /  1026.0 hPa NNE 4 mph /  6.4 km/h 10 mph /  16.1 km/h 62 % 0 in /  0.0 mm
17:12 61.3 °F /  16.3 °C 49.5 °F /  9.7 °C 30.3 in /  1026.0 hPa NNE 4 mph /  6.4 km/h 10 mph /  16.1 km/h 65 % 0 in /  0.0 mm
17:17 61.2 °F /  16.2 °C 49.6 °F /  9.8 °C 30.3 in /  1026.0 hPa North 4 mph /  6.4 km/h 8 mph /  12.9 km/h 66 % 0 in /  0.0 mm
17:22 60.6 °F /  15.9 °C 48.7 °F /  9.3 °C 30.3 in /  1026.0 hPa NE 2 mph /  3.2 km/h 8 mph /  12.9 km/h 65 % 0 in /  0.0 mm
17:27 60.6 °F /  15.9 °C 49.6 °F /  9.8 °C 30.3 in /  1026.0 hPa NE 1 mph /  1.6 km/h 6 mph /  9.7 km/h 67 % 0 in /  0.0 mm
17:32 61 °F /  16.1 °C 48.7 °F /  9.3 °C 30.3 in /  1026.0 hPa NE 1 mph /  1.6 km/h 4 mph /  6.4 km/h 64 % 0 in /  0.0 mm
17:37 61.3 °F /  16.3 °C 48.6 °F /  9.2 °C 30.3 in /  1026.0 hPa NE 3 mph /  4.8 km/h 5 mph /  8.0 km/h 63 % 0 in /  0.0 mm
17:47 62.1 °F /  16.7 °C 47.5 °F /  8.6 °C 30.3 in /  1026.0 hPa NNE 2 mph /  3.2 km/h 4 mph /  6.4 km/h 59 % 0 in /  0.0 mm
17:52 62.2 °F /  16.8 °C 48.2 °F /  9.0 °C 30.3 in /  1026.3 hPa NW 6 mph /  9.7 km/h 6 mph /  9.7 km/h 60 % 0 in /  0.0 mm
17:57 61.9 °F /  16.6 °C 48.2 °F /  9.0 °C 30.3 in /  1026.3 hPa NNW 4 mph /  6.4 km/h 7 mph /  11.3 km/h 61 % 0 in /  0.0 mm
18:02 61.7 °F /  16.5 °C 48.9 °F /  9.4 °C 30.3 in /  1026.0 hPa NE 3 mph /  4.8 km/h 7 mph /  11.3 km/h 63 % 0 in /  0.0 mm
18:12 61.9 °F /  16.6 °C 48.2 °F /  9.0 °C 30.3 in /  1026.3 hPa NNW 4 mph /  6.4 km/h 6 mph /  9.7 km/h 61 % 0 in /  0.0 mm
18:17 61.9 °F /  16.6 °C 47.8 °F /  8.8 °C 30.3 in /  1026.3 hPa NNE 3 mph /  4.8 km/h 6 mph /  9.7 km/h 60 % 0 in /  0.0 mm
18:27 62.1 °F /  16.7 °C 48 °F /  8.9 °C 30.3 in /  1026.3 hPa NE 4 mph /  6.4 km/h 6 mph /  9.7 km/h 60 % 0 in /  0.0 mm
18:32 61.9 °F /  16.6 °C 48.2 °F /  9.0 °C 30.3 in /  1026.3 hPa NNE 4 mph /  6.4 km/h 5 mph /  8.0 km/h 61 % 0 in /  0.0 mm
18:42 61.2 °F /  16.2 °C 48 °F /  8.9 °C 30.3 in /  1026.3 hPa NE 1 mph /  1.6 km/h 6 mph /  9.7 km/h 62 % 0 in /  0.0 mm
18:47 61 °F /  16.1 °C 48.4 °F /  9.1 °C 30.3 in /  1026.3 hPa NE 3 mph /  4.8 km/h 6 mph /  9.7 km/h 63 % 0 in /  0.0 mm
18:57 60.3 °F /  15.7 °C 48.4 °F /  9.1 °C 30.3 in /  1026.3 hPa Calm   3 mph /  4.8 km/h 65 % 0 in /  0.0 mm
19:07 59.5 °F /  15.3 °C 47.8 °F /  8.8 °C 30.3 in /  1026.3 hPa Calm   2 mph /  3.2 km/h 65 % 0 in /  0.0 mm
19:12 59.4 °F /  15.2 °C 48 °F /  8.9 °C 30.3 in /  1026.0 hPa Calm   2 mph /  3.2 km/h 66 % 0 in /  0.0 mm
19:22 58.6 °F /  14.8 °C 50 °F /  10.0 °C 30.3 in /  1026.0 hPa Calm   1 mph /  1.6 km/h 73 % 0 in /  0.0 mm
19:27 57.7 °F /  14.3 °C 49.5 °F /  9.7 °C 30.3 in /  1026.3 hPa Calm   1 mph /  1.6 km/h 74 % 0 in /  0.0 mm
19:32 56.8 °F /  13.8 °C 48.9 °F /  9.4 °C 30.3 in /  1026.0 hPa Calm   1 mph /  1.6 km/h 75 % 0 in /  0.0 mm
19:37 56.5 °F /  13.6 °C 49.3 °F /  9.6 °C 30.3 in /  1026.0 hPa NW 1 mph /  1.6 km/h 1 mph /  1.6 km/h 77 % 0 in /  0.0 mm
19:42 55.6 °F /  13.1 °C 48.2 °F /  9.0 °C 30.3 in /  1026.3 hPa WNW 2 mph /  3.2 km/h 2 mph /  3.2 km/h 76 % 0 in /  0.0 mm
19:47 54.9 °F /  12.7 °C 48.7 °F /  9.3 °C 30.3 in /  1026.3 hPa WNW 1 mph /  1.6 km/h 2 mph /  3.2 km/h 80 % 0 in /  0.0 mm
19:52 54.1 °F /  12.3 °C 48 °F /  8.9 °C 30.3 in /  1026.3 hPa Calm   2 mph /  3.2 km/h 80 % 0 in /  0.0 mm
19:57 54.3 °F /  12.4 °C 48 °F /  8.9 °C 30.3 in /  1026.3 hPa Calm   2 mph /  3.2 km/h 79 % 0 in /  0.0 mm
20:02 54.1 °F /  12.3 °C 47.8 °F /  8.8 °C 30.3 in /  1026.3 hPa Calm   2 mph /  3.2 km/h 79 % 0 in /  0.0 mm
20:07 53.8 °F /  12.1 °C 48.4 °F /  9.1 °C 30.3 in /  1026.3 hPa Calm   1 mph /  1.6 km/h 82 % 0 in /  0.0 mm
20:12 53.8 °F /  12.1 °C 48.7 °F /  9.3 °C 30.3 in /  1026.3 hPa WNW 1 mph /  1.6 km/h 1 mph /  1.6 km/h 83 % 0 in /  0.0 mm
20:17 53.1 °F /  11.7 °C 48.4 °F /  9.1 °C 30.3 in /  1026.6 hPa Calm   2 mph /  3.2 km/h 84 % 0 in /  0.0 mm
20:22 52.9 °F /  11.6 °C 48.6 °F /  9.2 °C 30.3 in /  1026.6 hPa Calm   2 mph /  3.2 km/h 85 % 0 in /  0.0 mm
20:27 52.5 °F /  11.4 °C 48.4 °F /  9.1 °C 30.3 in /  1026.6 hPa Calm   2 mph /  3.2 km/h 86 % 0 in /  0.0 mm
20:32 52.5 °F /  11.4 °C 48.7 °F /  9.3 °C 30.3 in /  1026.6 hPa NNW 1 mph /  1.6 km/h 2 mph /  3.2 km/h 87 % 0 in /  0.0 mm
20:37 52.5 °F /  11.4 °C 48.4 °F /  9.1 °C 30.3 in /  1026.6 hPa North 1 mph /  1.6 km/h 2 mph /  3.2 km/h 86 % 0 in /  0.0 mm
20:42 52.5 °F /  11.4 °C 48.7 °F /  9.3 °C 30.3 in /  1026.6 hPa Calm   2 mph /  3.2 km/h 87 % 0 in /  0.0 mm
20:47 52.3 °F /  11.3 °C 48.6 °F /  9.2 °C 30.3 in /  1027.0 hPa Calm   1 mph /  1.6 km/h 87 % 0 in /  0.0 mm
20:52 52 °F /  11.1 °C 48.2 °F /  9.0 °C 30.3 in /  1026.6 hPa Calm   1 mph /  1.6 km/h 87 % 0 in /  0.0 mm
20:57 51.4 °F /  10.8 °C 48 °F /  8.9 °C 30.3 in /  1026.6 hPa Calm   1 mph /  1.6 km/h 88 % 0 in /  0.0 mm
21:02 51.1 °F /  10.6 °C 48 °F /  8.9 °C 30.3 in /  1027.0 hPa Calm   1 mph /  1.6 km/h 89 % 0 in /  0.0 mm
21:07 50.9 °F /  10.5 °C 47.8 °F /  8.8 °C 30.3 in /  1027.0 hPa Calm   1 mph /  1.6 km/h 89 % 0 in /  0.0 mm
21:12 50.7 °F /  10.4 °C 47.7 °F /  8.7 °C 30.3 in /  1027.0 hPa Calm   1 mph /  1.6 km/h 89 % 0 in /  0.0 mm
21:17 50.5 °F /  10.3 °C 47.7 °F /  8.7 °C 30.3 in /  1027.0 hPa Calm   1 mph /  1.6 km/h 90 % 0 in /  0.0 mm
21:27 50.2 °F /  10.1 °C 47.3 °F /  8.5 °C 30.3 in /  1027.3 hPa NW 1 mph /  1.6 km/h 1 mph /  1.6 km/h 90 % 0 in /  0.0 mm
21:32 50.7 °F /  10.4 °C 47.7 °F /  8.7 °C 30.3 in /  1027.3 hPa NW 3 mph /  4.8 km/h 3 mph /  4.8 km/h 89 % 0 in /  0.0 mm
21:42 51.4 °F /  10.8 °C 47.5 °F /  8.6 °C 30.4 in /  1027.7 hPa NW 2 mph /  3.2 km/h 3 mph /  4.8 km/h 86 % 0 in /  0.0 mm
21:47 51.4 °F /  10.8 °C 47.5 °F /  8.6 °C 30.4 in /  1027.7 hPa NNW 1 mph /  1.6 km/h 3 mph /  4.8 km/h 86 % 0 in /  0.0 mm
21:52 51.4 °F /  10.8 °C 47.5 °F /  8.6 °C 30.4 in /  1027.7 hPa NW 2 mph /  3.2 km/h 3 mph /  4.8 km/h 86 % 0 in /  0.0 mm
21:57 51.4 °F /  10.8 °C 47.5 °F /  8.6 °C 30.4 in /  1027.7 hPa NW 2 mph /  3.2 km/h 3 mph /  4.8 km/h 86 % 0 in /  0.0 mm
22:02 51.6 °F /  10.9 °C 47.3 °F /  8.5 °C 30.4 in /  1027.7 hPa NW 1 mph /  1.6 km/h 3 mph /  4.8 km/h 85 % 0 in /  0.0 mm
22:07 51.6 °F /  10.9 °C 47.3 °F /  8.5 °C 30.4 in /  1027.7 hPa NNW 1 mph /  1.6 km/h 3 mph /  4.8 km/h 85 % 0 in /  0.0 mm
22:12 51.6 °F /  10.9 °C 47.3 °F /  8.5 °C 30.4 in /  1027.7 hPa NNW 1 mph /  1.6 km/h 2 mph /  3.2 km/h 85 % 0 in /  0.0 mm
22:17 51.4 °F /  10.8 °C 47.1 °F /  8.4 °C 30.4 in /  1027.7 hPa NNW 1 mph /  1.6 km/h 2 mph /  3.2 km/h 85 % 0 in /  0.0 mm
22:22 51.6 °F /  10.9 °C 47.3 °F /  8.5 °C 30.4 in /  1027.7 hPa Calm   3 mph /  4.8 km/h 85 % 0 in /  0.0 mm
22:27 51.6 °F /  10.9 °C 46.9 °F /  8.3 °C 30.4 in /  1027.7 hPa WNW 2 mph /  3.2 km/h 3 mph /  4.8 km/h 84 % 0 in /  0.0 mm
22:32 51.6 °F /  10.9 °C 46.9 °F /  8.3 °C 30.4 in /  1027.7 hPa Calm   3 mph /  4.8 km/h 84 % 0 in /  0.0 mm
22:37 51.6 °F /  10.9 °C 46.9 °F /  8.3 °C 30.4 in /  1027.7 hPa WNW 1 mph /  1.6 km/h 2 mph /  3.2 km/h 84 % 0 in /  0.0 mm
22:47 49.8 °F /  9.9 °C 46.4 °F /  8.0 °C 30.4 in /  1028.0 hPa WNW 1 mph /  1.6 km/h 2 mph /  3.2 km/h 88 % 0 in /  0.0 mm
22:52 50 °F /  10.0 °C 46.6 °F /  8.1 °C 30.4 in /  1028.0 hPa Calm   2 mph /  3.2 km/h 88 % 0 in /  0.0 mm
22:57 50 °F /  10.0 °C 46.6 °F /  8.1 °C 30.4 in /  1028.0 hPa Calm   2 mph /  3.2 km/h 88 % 0 in /  0.0 mm
23:02 49.6 °F /  9.8 °C 46.2 °F /  7.9 °C 30.4 in /  1028.0 hPa Calm   1 mph /  1.6 km/h 88 % 0 in /  0.0 mm
23:07 49.5 °F /  9.7 °C 46.4 °F /  8.0 °C 30.4 in /  1028.0 hPa Calm   1 mph /  1.6 km/h 89 % 0 in /  0.0 mm
23:12 49.3 °F /  9.6 °C 46.2 °F /  7.9 °C 30.4 in /  1028.0 hPa WNW 1 mph /  1.6 km/h 1 mph /  1.6 km/h 89 % 0 in /  0.0 mm
23:17 49.1 °F /  9.5 °C 46.2 °F /  7.9 °C 30.4 in /  1028.0 hPa Calm   2 mph /  3.2 km/h 90 % 0 in /  0.0 mm
23:27 48.9 °F /  9.4 °C 46.4 °F /  8.0 °C 30.4 in /  1028.0 hPa WNW 1 mph /  1.6 km/h 1 mph /  1.6 km/h 91 % 0 in /  0.0 mm
23:32 49.1 °F /  9.5 °C 46.2 °F /  7.9 °C 30.4 in /  1028.0 hPa WNW 1 mph /  1.6 km/h 1 mph /  1.6 km/h 90 % 0 in /  0.0 mm
23:37 48.9 °F /  9.4 °C 46 °F /  7.8 °C 30.4 in /  1028.0 hPa Calm   1 mph /  1.6 km/h 90 % 0 in /  0.0 mm
23:42 48.9 °F /  9.4 °C 46 °F /  7.8 °C 30.4 in /  1028.3 hPa WNW 1 mph /  1.6 km/h 1 mph /  1.6 km/h 90 % 0 in /  0.0 mm
23:47 48.9 °F /  9.4 °C 46.4 °F /  8.0 °C 30.4 in /  1028.3 hPa Calm   1 mph /  1.6 km/h 91 % 0 in /  0.0 mm
23:52 48.9 °F /  9.4 °C 46 °F /  7.8 °C 30.4 in /  1028.0 hPa WNW 1 mph /  1.6 km/h 1 mph /  1.6 km/h 90 % 0 in /  0.0 mm
23:57 48.9 °F /  9.4 °C 46 °F /  7.8 °C 30.4 in /  1028.0 hPa Calm   1 mph /  1.6 km/h 90 % 0 in /  0.0 mm
Meteo18
Compliments of Weather Underground - 4 mb

Script developed by  Jim McMurry - jmcmurry@mwt.net Adapted for the template by  Wim van der Kuil - Leuven-Template.eu

You find our weather info also at:

European Weather Network

Weather Underground

Equipment we use:

Weather-station
Davis Vue

Weather-program
Meteohub

Weather-server
Raspberry PI 2 B+

Provider
1 and 1

Davis Vue

Meteohub

Raspberry PI 2 B+

1 and 1